sensor_id;sensor_type;location;lat;lon;timestamp;P1;durP1;ratioP1;P2;durP2;ratioP2
37859;SDS011;23698;52.014;5.190;2023-02-28T00:00:05;4.03;;;2.10;;
37859;SDS011;23698;52.014;5.190;2023-02-28T00:02:55;10.50;;;3.00;;
37859;SDS011;23698;52.014;5.190;2023-02-28T00:05:41;4.35;;;2.40;;
37859;SDS011;23698;52.014;5.190;2023-02-28T00:08:28;5.22;;;2.40;;
37859;SDS011;23698;52.014;5.190;2023-02-28T00:11:15;13.02;;;2.60;;
37859;SDS011;23698;52.014;5.190;2023-02-28T00:14:02;4.40;;;2.58;;
37859;SDS011;23698;52.014;5.190;2023-02-28T00:16:49;7.05;;;2.20;;
37859;SDS011;23698;52.014;5.190;2023-02-28T00:19:36;6.38;;;2.67;;
37859;SDS011;23698;52.014;5.190;2023-02-28T00:22:22;9.13;;;2.58;;
37859;SDS011;23698;52.014;5.190;2023-02-28T00:25:09;7.55;;;3.63;;
37859;SDS011;23698;52.014;5.190;2023-02-28T00:27:57;7.90;;;2.88;;
37859;SDS011;23698;52.014;5.190;2023-02-28T00:30:44;5.47;;;2.70;;
37859;SDS011;23698;52.014;5.190;2023-02-28T00:33:32;6.28;;;2.65;;
37859;SDS011;23698;52.014;5.190;2023-02-28T00:36:19;5.95;;;2.65;;
37859;SDS011;23698;52.014;5.190;2023-02-28T00:39:05;7.35;;;2.50;;
37859;SDS011;23698;52.014;5.190;2023-02-28T00:41:52;11.13;;;2.35;;
37859;SDS011;23698;52.014;5.190;2023-02-28T00:44:38;7.90;;;2.72;;
37859;SDS011;23698;52.014;5.190;2023-02-28T00:47:24;7.45;;;2.50;;
37859;SDS011;23698;52.014;5.190;2023-02-28T00:50:12;6.63;;;2.90;;
37859;SDS011;23698;52.014;5.190;2023-02-28T00:52:59;6.95;;;2.90;;
37859;SDS011;23698;52.014;5.190;2023-02-28T00:55:45;5.55;;;3.00;;
37859;SDS011;23698;52.014;5.190;2023-02-28T00:58:31;9.90;;;2.72;;
37859;SDS011;23698;52.014;5.190;2023-02-28T01:01:18;8.88;;;2.90;;
37859;SDS011;23698;52.014;5.190;2023-02-28T01:04:05;12.88;;;3.40;;
37859;SDS011;23698;52.014;5.190;2023-02-28T01:06:54;5.15;;;2.60;;
37859;SDS011;23698;52.014;5.190;2023-02-28T01:09:40;6.72;;;2.83;;
37859;SDS011;23698;52.014;5.190;2023-02-28T01:12:27;6.18;;;2.40;;
37859;SDS011;23698;52.014;5.190;2023-02-28T01:15:15;8.73;;;2.97;;
37859;SDS011;23698;52.014;5.190;2023-02-28T01:18:02;4.93;;;2.67;;
37859;SDS011;23698;52.014;5.190;2023-02-28T01:20:48;7.22;;;2.80;;
37859;SDS011;23698;52.014;5.190;2023-02-28T01:23:38;9.38;;;3.17;;
37859;SDS011;23698;52.014;5.190;2023-02-28T01:26:24;5.47;;;2.80;;
37859;SDS011;23698;52.014;5.190;2023-02-28T01:29:11;6.55;;;2.80;;
37859;SDS011;23698;52.014;5.190;2023-02-28T01:31:57;10.95;;;2.80;;
37859;SDS011;23698;52.014;5.190;2023-02-28T01:34:44;8.65;;;3.20;;
37859;SDS011;23698;52.014;5.190;2023-02-28T01:37:30;7.95;;;2.95;;
37859;SDS011;23698;52.014;5.190;2023-02-28T01:40:19;7.43;;;2.83;;
37859;SDS011;23698;52.014;5.190;2023-02-28T01:43:07;6.70;;;2.95;;
37859;SDS011;23698;52.014;5.190;2023-02-28T01:46:04;5.45;;;2.67;;
37859;SDS011;23698;52.014;5.190;2023-02-28T01:48:51;6.25;;;3.25;;
37859;SDS011;23698;52.014;5.190;2023-02-28T01:51:44;6.40;;;3.20;;
37859;SDS011;23698;52.014;5.190;2023-02-28T01:54:36;7.20;;;2.80;;
37859;SDS011;23698;52.014;5.190;2023-02-28T01:57:24;5.85;;;2.63;;
37859;SDS011;23698;52.014;5.190;2023-02-28T02:00:20;6.47;;;2.72;;
37859;SDS011;23698;52.014;5.190;2023-02-28T02:03:10;6.90;;;2.85;;
37859;SDS011;23698;52.014;5.190;2023-02-28T02:06:01;4.60;;;2.75;;
37859;SDS011;23698;52.014;5.190;2023-02-28T02:08:48;7.28;;;3.00;;
37859;SDS011;23698;52.014;5.190;2023-02-28T02:11:34;7.78;;;3.40;;
37859;SDS011;23698;52.014;5.190;2023-02-28T02:14:27;9.32;;;2.88;;
37859;SDS011;23698;52.014;5.190;2023-02-28T02:17:26;7.05;;;3.35;;
37859;SDS011;23698;52.014;5.190;2023-02-28T02:20:30;5.35;;;2.50;;
37859;SDS011;23698;52.014;5.190;2023-02-28T02:27:06;8.00;;;3.22;;
37859;SDS011;23698;52.014;5.190;2023-02-28T02:36:49;9.63;;;2.92;;
37859;SDS011;23698;52.014;5.190;2023-02-28T02:39:40;6.95;;;2.92;;
37859;SDS011;23698;52.014;5.190;2023-02-28T02:42:36;7.13;;;2.70;;
37859;SDS011;23698;52.014;5.190;2023-02-28T02:45:28;8.52;;;3.30;;
37859;SDS011;23698;52.014;5.190;2023-02-28T02:48:21;5.97;;;3.10;;
37859;SDS011;23698;52.014;5.190;2023-02-28T02:54:02;4.57;;;2.53;;
37859;SDS011;23698;52.014;5.190;2023-02-28T02:56:54;5.82;;;3.00;;
37859;SDS011;23698;52.014;5.190;2023-02-28T02:59:43;5.82;;;3.05;;
37859;SDS011;23698;52.014;5.190;2023-02-28T03:02:31;7.05;;;3.00;;
37859;SDS011;23698;52.014;5.190;2023-02-28T03:05:20;4.25;;;2.78;;
37859;SDS011;23698;52.014;5.190;2023-02-28T03:08:10;5.80;;;3.38;;
37859;SDS011;23698;52.014;5.190;2023-02-28T03:10:58;7.38;;;2.90;;
37859;SDS011;23698;52.014;5.190;2023-02-28T03:17:15;7.95;;;3.05;;
37859;SDS011;23698;52.014;5.190;2023-02-28T03:20:18;7.20;;;2.83;;
37859;SDS011;23698;52.014;5.190;2023-02-28T03:23:19;7.22;;;3.50;;
37859;SDS011;23698;52.014;5.190;2023-02-28T03:26:13;5.68;;;3.25;;
37859;SDS011;23698;52.014;5.190;2023-02-28T03:29:06;7.20;;;3.00;;
37859;SDS011;23698;52.014;5.190;2023-02-28T03:32:03;7.03;;;3.63;;
37859;SDS011;23698;52.014;5.190;2023-02-28T03:35:00;7.47;;;3.00;;
37859;SDS011;23698;52.014;5.190;2023-02-28T03:37:53;5.68;;;2.97;;
37859;SDS011;23698;52.014;5.190;2023-02-28T03:40:47;7.97;;;3.28;;
37859;SDS011;23698;52.014;5.190;2023-02-28T03:43:39;7.93;;;3.55;;
37859;SDS011;23698;52.014;5.190;2023-02-28T03:46:30;11.30;;;3.50;;
37859;SDS011;23698;52.014;5.190;2023-02-28T03:49:22;8.77;;;3.13;;
37859;SDS011;23698;52.014;5.190;2023-02-28T03:52:13;8.65;;;3.40;;
37859;SDS011;23698;52.014;5.190;2023-02-28T03:55:01;7.18;;;3.53;;
37859;SDS011;23698;52.014;5.190;2023-02-28T03:57:56;7.45;;;3.15;;
37859;SDS011;23698;52.014;5.190;2023-02-28T04:00:49;6.20;;;3.28;;
37859;SDS011;23698;52.014;5.190;2023-02-28T04:03:41;7.60;;;3.45;;
37859;SDS011;23698;52.014;5.190;2023-02-28T04:06:27;8.15;;;3.50;;
37859;SDS011;23698;52.014;5.190;2023-02-28T04:09:17;5.87;;;3.30;;
37859;SDS011;23698;52.014;5.190;2023-02-28T04:12:03;8.05;;;3.25;;
37859;SDS011;23698;52.014;5.190;2023-02-28T04:14:50;5.82;;;3.63;;
37859;SDS011;23698;52.014;5.190;2023-02-28T04:17:38;8.65;;;3.28;;
37859;SDS011;23698;52.014;5.190;2023-02-28T04:20:24;5.90;;;2.80;;
37859;SDS011;23698;52.014;5.190;2023-02-28T04:23:10;13.27;;;3.58;;
37859;SDS011;23698;52.014;5.190;2023-02-28T04:25:56;6.50;;;3.50;;
37859;SDS011;23698;52.014;5.190;2023-02-28T04:28:43;5.35;;;3.20;;
37859;SDS011;23698;52.014;5.190;2023-02-28T04:31:29;7.78;;;3.20;;
37859;SDS011;23698;52.014;5.190;2023-02-28T04:34:17;9.27;;;3.50;;
37859;SDS011;23698;52.014;5.190;2023-02-28T04:37:05;6.18;;;3.00;;
37859;SDS011;23698;52.014;5.190;2023-02-28T04:39:58;3.53;;;2.40;;
37859;SDS011;23698;52.014;5.190;2023-02-28T04:42:45;5.22;;;2.85;;
37859;SDS011;23698;52.014;5.190;2023-02-28T04:45:31;4.75;;;2.60;;
37859;SDS011;23698;52.014;5.190;2023-02-28T04:48:19;4.28;;;2.33;;
37859;SDS011;23698;52.014;5.190;2023-02-28T04:51:08;6.05;;;2.55;;
37859;SDS011;23698;52.014;5.190;2023-02-28T04:53:56;6.77;;;2.50;;
37859;SDS011;23698;52.014;5.190;2023-02-28T04:56:42;6.10;;;2.72;;
37859;SDS011;23698;52.014;5.190;2023-02-28T04:59:29;7.10;;;2.80;;
37859;SDS011;23698;52.014;5.190;2023-02-28T05:02:15;4.65;;;2.60;;
37859;SDS011;23698;52.014;5.190;2023-02-28T05:05:02;4.90;;;2.47;;
37859;SDS011;23698;52.014;5.190;2023-02-28T05:07:49;7.90;;;2.50;;
37859;SDS011;23698;52.014;5.190;2023-02-28T05:10:36;3.70;;;2.45;;
37859;SDS011;23698;52.014;5.190;2023-02-28T05:13:22;4.25;;;2.80;;
37859;SDS011;23698;52.014;5.190;2023-02-28T05:16:09;5.63;;;2.05;;
37859;SDS011;23698;52.014;5.190;2023-02-28T05:18:55;3.70;;;2.25;;
37859;SDS011;23698;52.014;5.190;2023-02-28T05:21:48;7.00;;;2.45;;
37859;SDS011;23698;52.014;5.190;2023-02-28T05:24:38;6.45;;;2.28;;
37859;SDS011;23698;52.014;5.190;2023-02-28T05:27:24;4.15;;;2.17;;
37859;SDS011;23698;52.014;5.190;2023-02-28T05:30:11;5.40;;;2.47;;
37859;SDS011;23698;52.014;5.190;2023-02-28T05:32:57;4.45;;;2.60;;
37859;SDS011;23698;52.014;5.190;2023-02-28T05:35:44;4.30;;;2.85;;
37859;SDS011;23698;52.014;5.190;2023-02-28T05:38:31;3.40;;;2.40;;
37859;SDS011;23698;52.014;5.190;2023-02-28T05:41:19;5.53;;;2.65;;
37859;SDS011;23698;52.014;5.190;2023-02-28T05:44:06;4.45;;;2.85;;
37859;SDS011;23698;52.014;5.190;2023-02-28T05:46:52;5.03;;;3.38;;
37859;SDS011;23698;52.014;5.190;2023-02-28T05:49:39;4.28;;;2.50;;
37859;SDS011;23698;52.014;5.190;2023-02-28T05:52:25;5.50;;;2.80;;
37859;SDS011;23698;52.014;5.190;2023-02-28T05:55:11;3.70;;;2.45;;
37859;SDS011;23698;52.014;5.190;2023-02-28T05:57:59;6.75;;;2.80;;
37859;SDS011;23698;52.014;5.190;2023-02-28T06:00:45;7.25;;;3.10;;
37859;SDS011;23698;52.014;5.190;2023-02-28T06:03:32;6.20;;;3.03;;
37859;SDS011;23698;52.014;5.190;2023-02-28T06:06:18;6.75;;;2.85;;
37859;SDS011;23698;52.014;5.190;2023-02-28T06:09:04;5.82;;;3.13;;
37859;SDS011;23698;52.014;5.190;2023-02-28T06:11:51;5.28;;;2.78;;
37859;SDS011;23698;52.014;5.190;2023-02-28T06:14:40;4.97;;;2.63;;
37859;SDS011;23698;52.014;5.190;2023-02-28T06:17:26;5.30;;;2.90;;
37859;SDS011;23698;52.014;5.190;2023-02-28T06:20:13;4.82;;;3.03;;
37859;SDS011;23698;52.014;5.190;2023-02-28T06:22:59;9.05;;;3.25;;
37859;SDS011;23698;52.014;5.190;2023-02-28T06:25:45;6.65;;;3.58;;
37859;SDS011;23698;52.014;5.190;2023-02-28T06:28:32;6.93;;;3.33;;
37859;SDS011;23698;52.014;5.190;2023-02-28T06:31:20;4.80;;;2.83;;
37859;SDS011;23698;52.014;5.190;2023-02-28T06:34:07;4.85;;;3.15;;
37859;SDS011;23698;52.014;5.190;2023-02-28T06:36:53;6.18;;;3.53;;
37859;SDS011;23698;52.014;5.190;2023-02-28T06:39:40;6.60;;;3.53;;
37859;SDS011;23698;52.014;5.190;2023-02-28T06:42:26;8.13;;;3.83;;
37859;SDS011;23698;52.014;5.190;2023-02-28T06:45:13;8.30;;;3.80;;
37859;SDS011;23698;52.014;5.190;2023-02-28T06:48:01;8.20;;;3.45;;
37859;SDS011;23698;52.014;5.190;2023-02-28T06:50:48;4.82;;;3.22;;
37859;SDS011;23698;52.014;5.190;2023-02-28T06:53:34;10.63;;;3.72;;
37859;SDS011;23698;52.014;5.190;2023-02-28T06:56:21;6.25;;;3.90;;
37859;SDS011;23698;52.014;5.190;2023-02-28T06:59:08;7.50;;;4.32;;
37859;SDS011;23698;52.014;5.190;2023-02-28T07:01:55;7.70;;;4.15;;
37859;SDS011;23698;52.014;5.190;2023-02-28T07:04:43;8.68;;;4.15;;
37859;SDS011;23698;52.014;5.190;2023-02-28T07:07:30;9.68;;;4.20;;
37859;SDS011;23698;52.014;5.190;2023-02-28T07:10:17;6.82;;;4.03;;
37859;SDS011;23698;52.014;5.190;2023-02-28T07:13:04;10.63;;;4.18;;
37859;SDS011;23698;52.014;5.190;2023-02-28T07:15:53;10.65;;;4.28;;
37859;SDS011;23698;52.014;5.190;2023-02-28T07:18:40;7.90;;;4.25;;
37859;SDS011;23698;52.014;5.190;2023-02-28T07:21:28;9.35;;;4.30;;
37859;SDS011;23698;52.014;5.190;2023-02-28T07:24:15;7.90;;;3.78;;
37859;SDS011;23698;52.014;5.190;2023-02-28T07:27:02;7.38;;;3.67;;
37859;SDS011;23698;52.014;5.190;2023-02-28T07:29:49;9.48;;;4.13;;
37859;SDS011;23698;52.014;5.190;2023-02-28T07:32:35;7.78;;;4.18;;
37859;SDS011;23698;52.014;5.190;2023-02-28T07:35:22;6.07;;;3.65;;
37859;SDS011;23698;52.014;5.190;2023-02-28T07:38:10;8.73;;;3.70;;
37859;SDS011;23698;52.014;5.190;2023-02-28T07:40:58;7.40;;;4.15;;
37859;SDS011;23698;52.014;5.190;2023-02-28T07:43:44;6.65;;;4.05;;
37859;SDS011;23698;52.014;5.190;2023-02-28T07:46:31;7.32;;;4.25;;
37859;SDS011;23698;52.014;5.190;2023-02-28T07:49:21;9.88;;;4.43;;
37859;SDS011;23698;52.014;5.190;2023-02-28T07:52:07;8.55;;;3.90;;
37859;SDS011;23698;52.014;5.190;2023-02-28T07:54:57;9.10;;;4.15;;
37859;SDS011;23698;52.014;5.190;2023-02-28T07:57:44;8.68;;;3.95;;
37859;SDS011;23698;52.014;5.190;2023-02-28T08:00:30;8.68;;;3.50;;
37859;SDS011;23698;52.014;5.190;2023-02-28T08:03:18;8.60;;;4.18;;
37859;SDS011;23698;52.014;5.190;2023-02-28T08:06:13;7.68;;;4.68;;
37859;SDS011;23698;52.014;5.190;2023-02-28T08:09:02;9.20;;;4.97;;
37859;SDS011;23698;52.014;5.190;2023-02-28T08:11:50;5.95;;;4.20;;
37859;SDS011;23698;52.014;5.190;2023-02-28T08:14:37;8.05;;;4.88;;
37859;SDS011;23698;52.014;5.190;2023-02-28T08:17:24;6.93;;;4.20;;
37859;SDS011;23698;52.014;5.190;2023-02-28T08:20:11;7.45;;;3.88;;
37859;SDS011;23698;52.014;5.190;2023-02-28T08:22:58;6.53;;;4.05;;
37859;SDS011;23698;52.014;5.190;2023-02-28T08:25:44;12.27;;;5.18;;
37859;SDS011;23698;52.014;5.190;2023-02-28T08:28:32;6.43;;;3.60;;
37859;SDS011;23698;52.014;5.190;2023-02-28T08:31:19;7.75;;;3.60;;
37859;SDS011;23698;52.014;5.190;2023-02-28T08:34:06;5.85;;;3.50;;
37859;SDS011;23698;52.014;5.190;2023-02-28T08:36:52;6.25;;;3.22;;
37859;SDS011;23698;52.014;5.190;2023-02-28T08:39:39;6.40;;;3.10;;
37859;SDS011;23698;52.014;5.190;2023-02-28T08:42:25;7.18;;;2.90;;
37859;SDS011;23698;52.014;5.190;2023-02-28T08:45:13;7.28;;;2.97;;
37859;SDS011;23698;52.014;5.190;2023-02-28T08:48:00;4.47;;;3.08;;
37859;SDS011;23698;52.014;5.190;2023-02-28T08:50:54;4.57;;;3.22;;
37859;SDS011;23698;52.014;5.190;2023-02-28T08:53:51;5.82;;;2.60;;
37859;SDS011;23698;52.014;5.190;2023-02-28T08:56:38;6.40;;;2.63;;
37859;SDS011;23698;52.014;5.190;2023-02-28T08:59:25;2.90;;;2.22;;
37859;SDS011;23698;52.014;5.190;2023-02-28T09:02:13;5.75;;;2.42;;
37859;SDS011;23698;52.014;5.190;2023-02-28T09:05:00;5.13;;;2.83;;
37859;SDS011;23698;52.014;5.190;2023-02-28T09:07:47;4.40;;;2.58;;
37859;SDS011;23698;52.014;5.190;2023-02-28T09:10:35;3.88;;;2.22;;
37859;SDS011;23698;52.014;5.190;2023-02-28T09:13:21;2.50;;;1.67;;
37859;SDS011;23698;52.014;5.190;2023-02-28T09:16:09;3.15;;;1.95;;
37859;SDS011;23698;52.014;5.190;2023-02-28T09:18:58;4.25;;;2.17;;
37859;SDS011;23698;52.014;5.190;2023-02-28T09:21:45;2.20;;;1.90;;
37859;SDS011;23698;52.014;5.190;2023-02-28T09:24:31;3.25;;;1.85;;
37859;SDS011;23698;52.014;5.190;2023-02-28T09:27:17;3.38;;;1.73;;
37859;SDS011;23698;52.014;5.190;2023-02-28T09:30:04;5.13;;;2.05;;
37859;SDS011;23698;52.014;5.190;2023-02-28T09:32:52;4.53;;;1.60;;
37859;SDS011;23698;52.014;5.190;2023-02-28T09:35:40;3.60;;;1.60;;
37859;SDS011;23698;52.014;5.190;2023-02-28T09:38:27;4.30;;;1.60;;
37859;SDS011;23698;52.014;5.190;2023-02-28T09:41:14;3.75;;;1.40;;
37859;SDS011;23698;52.014;5.190;2023-02-28T09:44:03;5.63;;;1.52;;
37859;SDS011;23698;52.014;5.190;2023-02-28T09:46:53;1.80;;;0.90;;
37859;SDS011;23698;52.014;5.190;2023-02-28T09:49:44;1.30;;;0.98;;
37859;SDS011;23698;52.014;5.190;2023-02-28T09:52:34;2.28;;;1.13;;
37859;SDS011;23698;52.014;5.190;2023-02-28T09:55:22;5.38;;;1.25;;
37859;SDS011;23698;52.014;5.190;2023-02-28T09:58:26;2.47;;;1.20;;
37859;SDS011;23698;52.014;5.190;2023-02-28T10:01:18;2.40;;;1.30;;
37859;SDS011;23698;52.014;5.190;2023-02-28T10:04:16;2.65;;;1.25;;
37859;SDS011;23698;52.014;5.190;2023-02-28T10:07:15;4.60;;;1.33;;
37859;SDS011;23698;52.014;5.190;2023-02-28T10:10:14;2.50;;;1.63;;
37859;SDS011;23698;52.014;5.190;2023-02-28T10:13:12;4.63;;;1.58;;
37859;SDS011;23698;52.014;5.190;2023-02-28T10:16:03;5.75;;;1.60;;
37859;SDS011;23698;52.014;5.190;2023-02-28T10:18:59;1.60;;;1.38;;
37859;SDS011;23698;52.014;5.190;2023-02-28T10:21:52;1.52;;;1.30;;
37859;SDS011;23698;52.014;5.190;2023-02-28T10:24:43;4.47;;;1.73;;
37859;SDS011;23698;52.014;5.190;2023-02-28T10:27:33;6.15;;;1.63;;
37859;SDS011;23698;52.014;5.190;2023-02-28T10:30:20;3.35;;;1.35;;
37859;SDS011;23698;52.014;5.190;2023-02-28T10:33:08;1.70;;;1.15;;
37859;SDS011;23698;52.014;5.190;2023-02-28T10:36:05;1.70;;;1.20;;
37859;SDS011;23698;52.014;5.190;2023-02-28T10:38:52;3.85;;;1.33;;
37859;SDS011;23698;52.014;5.190;2023-02-28T10:41:42;4.93;;;1.58;;
37859;SDS011;23698;52.014;5.190;2023-02-28T10:44:30;2.90;;;1.17;;
37859;SDS011;23698;52.014;5.190;2023-02-28T10:47:17;2.00;;;1.10;;
37859;SDS011;23698;52.014;5.190;2023-02-28T10:50:05;1.10;;;1.00;;
37859;SDS011;23698;52.014;5.190;2023-02-28T10:53:16;1.40;;;1.27;;
37859;SDS011;23698;52.014;5.190;2023-02-28T10:56:15;1.30;;;1.00;;
37859;SDS011;23698;52.014;5.190;2023-02-28T10:59:22;2.22;;;1.10;;
37859;SDS011;23698;52.014;5.190;2023-02-28T11:02:32;1.42;;;1.00;;
37859;SDS011;23698;52.014;5.190;2023-02-28T11:05:28;2.88;;;1.35;;
37859;SDS011;23698;52.014;5.190;2023-02-28T11:08:17;2.10;;;1.27;;
37859;SDS011;23698;52.014;5.190;2023-02-28T11:11:04;2.10;;;1.40;;
37859;SDS011;23698;52.014;5.190;2023-02-28T11:13:52;3.22;;;1.50;;
37859;SDS011;23698;52.014;5.190;2023-02-28T11:16:40;3.83;;;1.27;;
37859;SDS011;23698;52.014;5.190;2023-02-28T11:19:28;2.47;;;1.40;;
37859;SDS011;23698;52.014;5.190;2023-02-28T11:22:23;2.22;;;1.35;;
37859;SDS011;23698;52.014;5.190;2023-02-28T11:25:16;1.55;;;1.08;;
37859;SDS011;23698;52.014;5.190;2023-02-28T11:28:22;3.25;;;1.00;;
37859;SDS011;23698;52.014;5.190;2023-02-28T11:31:15;2.90;;;1.58;;
37859;SDS011;23698;52.014;5.190;2023-02-28T11:34:20;2.35;;;1.30;;
37859;SDS011;23698;52.014;5.190;2023-02-28T11:37:13;3.42;;;1.50;;
37859;SDS011;23698;52.014;5.190;2023-02-28T11:40:02;3.60;;;1.60;;
37859;SDS011;23698;52.014;5.190;2023-02-28T11:43:01;1.45;;;1.23;;
37859;SDS011;23698;52.014;5.190;2023-02-28T11:45:58;2.58;;;1.42;;
37859;SDS011;23698;52.014;5.190;2023-02-28T11:48:55;2.55;;;1.50;;
37859;SDS011;23698;52.014;5.190;2023-02-28T11:51:50;1.55;;;1.33;;
37859;SDS011;23698;52.014;5.190;2023-02-28T11:54:51;1.92;;;1.30;;
37859;SDS011;23698;52.014;5.190;2023-02-28T11:58:00;1.23;;;1.05;;
37859;SDS011;23698;52.014;5.190;2023-02-28T12:01:02;5.07;;;1.40;;
37859;SDS011;23698;52.014;5.190;2023-02-28T12:04:04;1.85;;;1.20;;
37859;SDS011;23698;52.014;5.190;2023-02-28T12:07:03;1.50;;;1.15;;
37859;SDS011;23698;52.014;5.190;2023-02-28T12:10:02;2.20;;;1.30;;
37859;SDS011;23698;52.014;5.190;2023-02-28T12:13:01;2.83;;;1.45;;
37859;SDS011;23698;52.014;5.190;2023-02-28T12:16:09;6.55;;;1.88;;
37859;SDS011;23698;52.014;5.190;2023-02-28T12:19:12;2.92;;;1.40;;
37859;SDS011;23698;52.014;5.190;2023-02-28T12:22:18;2.80;;;1.38;;
37859;SDS011;23698;52.014;5.190;2023-02-28T12:28:29;5.70;;;1.10;;
37859;SDS011;23698;52.014;5.190;2023-02-28T12:31:20;2.63;;;1.58;;
37859;SDS011;23698;52.014;5.190;2023-02-28T12:34:11;2.03;;;1.30;;
37859;SDS011;23698;52.014;5.190;2023-02-28T12:37:02;2.97;;;1.38;;
37859;SDS011;23698;52.014;5.190;2023-02-28T12:39:54;3.78;;;1.30;;
37859;SDS011;23698;52.014;5.190;2023-02-28T12:42:48;2.20;;;1.40;;
37859;SDS011;23698;52.014;5.190;2023-02-28T12:45:39;1.65;;;1.20;;
37859;SDS011;23698;52.014;5.190;2023-02-28T12:48:29;4.32;;;1.55;;
37859;SDS011;23698;52.014;5.190;2023-02-28T12:51:23;3.58;;;1.30;;
37859;SDS011;23698;52.014;5.190;2023-02-28T12:54:14;3.47;;;1.50;;
37859;SDS011;23698;52.014;5.190;2023-02-28T12:57:09;3.13;;;1.38;;
37859;SDS011;23698;52.014;5.190;2023-02-28T13:00:03;3.05;;;1.23;;
37859;SDS011;23698;52.014;5.190;2023-02-28T13:03:01;2.92;;;1.60;;
37859;SDS011;23698;52.014;5.190;2023-02-28T13:09:27;3.08;;;1.10;;
37859;SDS011;23698;52.014;5.190;2023-02-28T13:12:14;1.67;;;1.25;;
37859;SDS011;23698;52.014;5.190;2023-02-28T13:15:15;2.90;;;1.48;;
37859;SDS011;23698;52.014;5.190;2023-02-28T13:18:20;3.10;;;1.25;;
37859;SDS011;23698;52.014;5.190;2023-02-28T13:21:22;2.25;;;1.13;;
37859;SDS011;23698;52.014;5.190;2023-02-28T13:24:11;1.42;;;1.10;;
37859;SDS011;23698;52.014;5.190;2023-02-28T13:27:21;1.52;;;1.23;;
37859;SDS011;23698;52.014;5.190;2023-02-28T13:33:36;2.05;;;1.27;;
37859;SDS011;23698;52.014;5.190;2023-02-28T13:36:29;1.25;;;1.13;;
37859;SDS011;23698;52.014;5.190;2023-02-28T13:42:32;1.33;;;1.20;;
37859;SDS011;23698;52.014;5.190;2023-02-28T13:45:25;1.55;;;1.30;;
37859;SDS011;23698;52.014;5.190;2023-02-28T13:48:16;1.83;;;1.20;;
37859;SDS011;23698;52.014;5.190;2023-02-28T13:54:31;2.10;;;1.40;;
37859;SDS011;23698;52.014;5.190;2023-02-28T13:57:30;3.15;;;1.70;;
37859;SDS011;23698;52.014;5.190;2023-02-28T14:00:31;1.67;;;1.20;;
37859;SDS011;23698;52.014;5.190;2023-02-28T14:06:46;2.38;;;1.30;;
37859;SDS011;23698;52.014;5.190;2023-02-28T14:09:34;3.13;;;1.60;;
37859;SDS011;23698;52.014;5.190;2023-02-28T14:15:49;2.55;;;1.45;;
37859;SDS011;23698;52.014;5.190;2023-02-28T14:18:42;3.47;;;1.38;;
37859;SDS011;23698;52.014;5.190;2023-02-28T14:21:36;4.75;;;1.63;;
37859;SDS011;23698;52.014;5.190;2023-02-28T14:24:38;2.72;;;1.50;;
37859;SDS011;23698;52.014;5.190;2023-02-28T14:27:38;1.63;;;1.23;;
37859;SDS011;23698;52.014;5.190;2023-02-28T14:37:23;2.15;;;1.52;;
37859;SDS011;23698;52.014;5.190;2023-02-28T14:40:16;3.05;;;1.60;;
37859;SDS011;23698;52.014;5.190;2023-02-28T14:43:15;2.70;;;1.90;;
37859;SDS011;23698;52.014;5.190;2023-02-28T14:48:53;1.90;;;1.65;;
37859;SDS011;23698;52.014;5.190;2023-02-28T14:51:39;2.47;;;1.80;;
37859;SDS011;23698;52.014;5.190;2023-02-28T14:54:25;3.55;;;2.00;;
37859;SDS011;23698;52.014;5.190;2023-02-28T14:57:21;1.92;;;1.75;;
37859;SDS011;23698;52.014;5.190;2023-02-28T15:00:12;2.70;;;1.75;;
37859;SDS011;23698;52.014;5.190;2023-02-28T15:03:17;2.78;;;1.90;;
37859;SDS011;23698;52.014;5.190;2023-02-28T15:06:06;3.17;;;1.65;;
37859;SDS011;23698;52.014;5.190;2023-02-28T15:09:14;2.10;;;1.33;;
37859;SDS011;23698;52.014;5.190;2023-02-28T15:12:02;2.83;;;1.63;;
37859;SDS011;23698;52.014;5.190;2023-02-28T15:14:49;3.00;;;1.58;;
37859;SDS011;23698;52.014;5.190;2023-02-28T15:17:36;1.42;;;1.13;;
37859;SDS011;23698;52.014;5.190;2023-02-28T15:20:23;2.42;;;1.60;;
37859;SDS011;23698;52.014;5.190;2023-02-28T15:23:10;2.50;;;1.58;;
37859;SDS011;23698;52.014;5.190;2023-02-28T15:25:57;2.85;;;1.70;;
37859;SDS011;23698;52.014;5.190;2023-02-28T15:28:45;2.05;;;1.55;;
37859;SDS011;23698;52.014;5.190;2023-02-28T15:31:34;4.93;;;1.95;;
37859;SDS011;23698;52.014;5.190;2023-02-28T15:34:40;3.72;;;1.60;;
37859;SDS011;23698;52.014;5.190;2023-02-28T15:37:33;3.28;;;1.48;;
37859;SDS011;23698;52.014;5.190;2023-02-28T15:40:26;3.70;;;1.52;;
37859;SDS011;23698;52.014;5.190;2023-02-28T15:43:15;4.43;;;2.08;;
37859;SDS011;23698;52.014;5.190;2023-02-28T15:46:03;2.53;;;1.50;;
37859;SDS011;23698;52.014;5.190;2023-02-28T15:48:54;2.70;;;1.83;;
37859;SDS011;23698;52.014;5.190;2023-02-28T15:51:42;2.00;;;1.27;;
37859;SDS011;23698;52.014;5.190;2023-02-28T15:54:29;2.67;;;1.70;;
37859;SDS011;23698;52.014;5.190;2023-02-28T15:57:20;2.55;;;1.60;;
37859;SDS011;23698;52.014;5.190;2023-02-28T16:00:10;2.23;;;1.33;;
37859;SDS011;23698;52.014;5.190;2023-02-28T16:02:59;2.50;;;1.48;;
37859;SDS011;23698;52.014;5.190;2023-02-28T16:05:47;5.90;;;1.88;;
37859;SDS011;23698;52.014;5.190;2023-02-28T16:09:08;2.10;;;1.42;;
37859;SDS011;23698;52.014;5.190;2023-02-28T16:11:55;1.80;;;1.50;;
37859;SDS011;23698;52.014;5.190;2023-02-28T16:17:34;3.83;;;1.60;;
37859;SDS011;23698;52.014;5.190;2023-02-28T16:20:24;1.45;;;1.35;;
37859;SDS011;23698;52.014;5.190;2023-02-28T16:23:13;1.95;;;1.40;;
37859;SDS011;23698;52.014;5.190;2023-02-28T16:26:00;3.45;;;1.58;;
37859;SDS011;23698;52.014;5.190;2023-02-28T16:28:47;2.08;;;1.55;;
37859;SDS011;23698;52.014;5.190;2023-02-28T16:31:34;4.32;;;1.63;;
37859;SDS011;23698;52.014;5.190;2023-02-28T16:34:23;8.65;;;1.92;;
37859;SDS011;23698;52.014;5.190;2023-02-28T16:37:11;2.88;;;1.70;;
37859;SDS011;23698;52.014;5.190;2023-02-28T16:40:00;3.88;;;1.75;;
37859;SDS011;23698;52.014;5.190;2023-02-28T16:42:47;3.58;;;1.83;;
37859;SDS011;23698;52.014;5.190;2023-02-28T16:45:37;4.07;;;1.53;;
37859;SDS011;23698;52.014;5.190;2023-02-28T16:48:23;1.88;;;1.60;;
37859;SDS011;23698;52.014;5.190;2023-02-28T16:51:11;3.92;;;1.70;;
37859;SDS011;23698;52.014;5.190;2023-02-28T16:53:58;5.10;;;1.90;;
37859;SDS011;23698;52.014;5.190;2023-02-28T16:56:46;1.70;;;1.60;;
37859;SDS011;23698;52.014;5.190;2023-02-28T16:59:34;2.15;;;1.63;;
37859;SDS011;23698;52.014;5.190;2023-02-28T17:02:21;2.53;;;1.63;;
37859;SDS011;23698;52.014;5.190;2023-02-28T17:05:08;5.05;;;1.92;;
37859;SDS011;23698;52.014;5.190;2023-02-28T17:07:57;3.75;;;1.65;;
37859;SDS011;23698;52.014;5.190;2023-02-28T17:10:44;6.93;;;1.70;;
37859;SDS011;23698;52.014;5.190;2023-02-28T17:13:32;4.07;;;1.52;;
37859;SDS011;23698;52.014;5.190;2023-02-28T17:16:20;2.28;;;1.60;;
37859;SDS011;23698;52.014;5.190;2023-02-28T17:19:12;3.90;;;1.80;;
37859;SDS011;23698;52.014;5.190;2023-02-28T17:21:59;3.60;;;2.08;;
37859;SDS011;23698;52.014;5.190;2023-02-28T17:24:45;4.15;;;2.15;;
37859;SDS011;23698;52.014;5.190;2023-02-28T17:27:32;5.72;;;2.08;;
37859;SDS011;23698;52.014;5.190;2023-02-28T17:30:20;3.72;;;1.67;;
37859;SDS011;23698;52.014;5.190;2023-02-28T17:33:09;6.78;;;2.25;;
37859;SDS011;23698;52.014;5.190;2023-02-28T17:35:55;5.10;;;1.63;;
37859;SDS011;23698;52.014;5.190;2023-02-28T17:38:41;2.70;;;1.65;;
37859;SDS011;23698;52.014;5.190;2023-02-28T17:41:28;4.10;;;2.08;;
37859;SDS011;23698;52.014;5.190;2023-02-28T17:44:15;2.38;;;1.70;;
37859;SDS011;23698;52.014;5.190;2023-02-28T17:47:02;3.70;;;1.90;;
37859;SDS011;23698;52.014;5.190;2023-02-28T17:49:49;2.70;;;1.45;;
37859;SDS011;23698;52.014;5.190;2023-02-28T17:52:36;3.53;;;1.80;;
37859;SDS011;23698;52.014;5.190;2023-02-28T17:55:23;5.18;;;1.80;;
37859;SDS011;23698;52.014;5.190;2023-02-28T17:58:09;3.20;;;2.05;;